createdAt,value
2019-05-01T00:00:58.592Z,1010.39
2019-05-01T00:01:58.273Z,1010.40
2019-05-01T00:03:58.242Z,1010.37
2019-05-01T00:04:58.221Z,1010.40
2019-05-01T00:05:58.301Z,1010.34
2019-05-01T00:06:58.469Z,1010.32
2019-05-01T00:07:58.259Z,1010.35
2019-05-01T00:09:58.193Z,1010.32
2019-05-01T00:11:58.086Z,1010.27
2019-05-01T00:13:58.030Z,1010.29
2019-05-01T00:14:58.014Z,1010.26
2019-05-01T00:15:57.986Z,1010.24
2019-05-01T00:17:58.049Z,1010.24
2019-05-01T00:19:57.918Z,1010.23
2019-05-01T00:20:58.161Z,1010.21
2019-05-01T00:21:57.873Z,1010.18
2019-05-01T00:22:57.857Z,1010.19
2019-05-01T00:23:57.837Z,1010.21
2019-05-01T00:24:57.823Z,1010.17
2019-05-01T00:25:57.796Z,1010.19
2019-05-01T00:26:57.781Z,1010.15
2019-05-01T00:27:58.057Z,1010.14
2019-05-01T00:28:57.731Z,1010.12
2019-05-01T00:29:57.728Z,1010.11
2019-05-01T00:31:57.673Z,1010.06
2019-05-01T00:32:57.653Z,1010.07
2019-05-01T00:34:57.918Z,1010.08
2019-05-01T00:35:57.602Z,1009.99
2019-05-01T00:36:57.567Z,1010.01
2019-05-01T00:37:57.599Z,1010.02
2019-05-01T00:38:57.628Z,1010.02
2019-05-01T00:41:57.470Z,1010.00
2019-05-01T00:42:57.858Z,1009.97
2019-05-01T00:43:57.515Z,1009.96
2019-05-01T00:44:57.423Z,1009.91
2019-05-01T00:45:57.430Z,1009.92
2019-05-01T00:47:57.368Z,1009.94
2019-05-01T00:48:57.335Z,1009.92
2019-05-01T00:49:57.623Z,1009.91
2019-05-01T00:50:57.290Z,1009.90
2019-05-01T00:51:57.331Z,1009.94
2019-05-01T00:52:57.245Z,1009.91
2019-05-01T00:53:57.503Z,1009.87
2019-05-01T00:54:57.307Z,1009.85
2019-05-01T00:55:57.300Z,1009.87
2019-05-01T00:56:57.482Z,1009.88
2019-05-01T00:57:57.205Z,1009.83
2019-05-01T00:58:57.192Z,1009.82
2019-05-01T00:59:57.903Z,1009.82
2019-05-01T01:00:57.084Z,1009.82
2019-05-01T01:01:57.100Z,1009.78
2019-05-01T01:02:57.049Z,1009.77
2019-05-01T01:03:57.339Z,1009.78
2019-05-01T01:04:57.016Z,1009.74
2019-05-01T01:05:56.982Z,1009.71
2019-05-01T01:06:56.972Z,1009.75
2019-05-01T01:07:57.044Z,1009.75
2019-05-01T01:08:56.940Z,1009.73
2019-05-01T01:10:56.910Z,1009.71
2019-05-01T01:11:56.885Z,1009.70
2019-05-01T01:12:56.858Z,1009.67
2019-05-01T01:13:56.825Z,1009.66
2019-05-01T01:14:57.002Z,1009.67
2019-05-01T01:15:57.030Z,1009.67
2019-05-01T01:18:56.728Z,1009.65
2019-05-01T01:19:56.717Z,1009.65
2019-05-01T01:20:56.686Z,1009.64
2019-05-01T01:21:56.965Z,1009.66
2019-05-01T01:22:56.642Z,1009.66
2019-05-01T01:23:56.685Z,1009.64
2019-05-01T01:25:56.578Z,1009.67
2019-05-01T01:26:56.557Z,1009.68
2019-05-01T01:27:56.840Z,1009.66
2019-05-01T01:28:56.538Z,1009.67
2019-05-01T01:29:56.499Z,1009.69
2019-05-01T01:30:57.380Z,1009.66
2019-05-01T01:31:56.458Z,1009.67
2019-05-01T01:32:57.162Z,1009.70
2019-05-01T01:34:56.394Z,1009.68
2019-05-01T01:35:56.388Z,1009.62
2019-05-01T01:36:56.489Z,1009.64
2019-05-01T01:37:56.371Z,1009.65
2019-05-01T01:39:56.602Z,1009.62
2019-05-01T01:40:56.274Z,1009.61
2019-05-01T01:41:56.245Z,1009.63
2019-05-01T01:42:56.252Z,1009.62
2019-05-01T01:43:56.216Z,1009.57
2019-05-01T01:45:56.215Z,1009.59
2019-05-01T01:46:56.456Z,1009.58
2019-05-01T01:47:56.125Z,1009.55
2019-05-01T01:48:56.112Z,1009.55
2019-05-01T01:50:56.064Z,1009.53
2019-05-01T01:51:56.045Z,1009.54
2019-05-01T01:52:56.025Z,1009.51
2019-05-01T01:53:56.316Z,1009.51
2019-05-01T01:55:55.973Z,1009.54
2019-05-01T01:56:55.951Z,1009.50
2019-05-01T01:57:55.922Z,1009.46
2019-05-01T01:58:55.916Z,1009.48
2019-05-01T01:59:55.893Z,1009.48
2019-05-01T02:01:08.757Z,1009.47
2019-05-01T02:01:55.848Z,1009.48
2019-05-01T02:02:55.823Z,1009.45
2019-05-01T02:03:55.796Z,1009.45
2019-05-01T02:04:55.812Z,1009.44
2019-05-01T02:05:55.860Z,1009.44
2019-05-01T02:06:55.752Z,1009.43
2019-05-01T02:07:56.027Z,1009.39
2019-05-01T02:08:56.857Z,1009.39
2019-05-01T02:09:55.685Z,1009.39
2019-05-01T02:10:55.755Z,1009.36
2019-05-01T02:12:55.623Z,1009.31
2019-05-01T02:13:55.602Z,1009.32
2019-05-01T02:14:55.897Z,1009.27
2019-05-01T02:15:55.553Z,1009.27
2019-05-01T02:16:55.543Z,1009.25
2019-05-01T02:17:55.515Z,1009.25
2019-05-01T02:19:55.513Z,1009.24
2019-05-01T02:20:55.459Z,1009.25
2019-05-01T02:22:55.415Z,1009.23
2019-05-01T02:23:55.394Z,1009.21
2019-05-01T02:24:55.369Z,1009.23
2019-05-01T02:25:55.353Z,1009.23
2019-05-01T02:26:55.330Z,1009.26
2019-05-01T02:28:55.298Z,1009.25
2019-05-01T02:29:55.573Z,1009.22
2019-05-01T02:30:55.250Z,1009.24
2019-05-01T02:31:55.227Z,1009.27
2019-05-01T02:32:55.220Z,1009.25
2019-05-01T02:33:55.249Z,1009.23
2019-05-01T02:35:55.149Z,1009.22
2019-05-01T02:36:55.423Z,1009.24
2019-05-01T02:37:55.116Z,1009.27
2019-05-01T02:38:55.077Z,1009.22
2019-05-01T02:39:55.062Z,1009.22
2019-05-01T02:40:55.242Z,1009.26
2019-05-01T02:41:55.027Z,1009.23
2019-05-01T02:42:55.495Z,1009.22
2019-05-01T02:43:54.992Z,1009.16
2019-05-01T02:44:54.981Z,1009.15
2019-05-01T02:45:54.978Z,1009.21
2019-05-01T02:46:54.917Z,1009.17
2019-05-01T02:47:54.911Z,1009.18
2019-05-01T02:48:55.181Z,1009.14
2019-05-01T02:49:54.858Z,1009.13
2019-05-01T02:50:54.839Z,1009.13
2019-05-01T02:51:54.818Z,1009.15
2019-05-01T02:52:54.797Z,1009.14
2019-05-01T02:53:54.776Z,1009.15
2019-05-01T02:54:55.053Z,1009.13
2019-05-01T02:55:54.734Z,1009.13
2019-05-01T02:56:54.723Z,1009.14
2019-05-01T02:57:54.689Z,1009.10
2019-05-01T02:58:54.779Z,1009.12
2019-05-01T02:59:54.648Z,1009.08
2019-05-01T03:00:54.976Z,1009.12
2019-05-01T03:01:54.612Z,1009.08
2019-05-01T03:02:54.594Z,1009.11
2019-05-01T03:03:54.569Z,1009.12
2019-05-01T03:04:54.565Z,1009.13
2019-05-01T03:05:54.541Z,1009.10
2019-05-01T03:06:54.813Z,1009.14
2019-05-01T03:08:54.478Z,1009.10
2019-05-01T03:09:54.451Z,1009.09
2019-05-01T03:10:54.429Z,1009.05
2019-05-01T03:11:54.422Z,1009.06
2019-05-01T03:12:54.381Z,1009.05
2019-05-01T03:13:54.681Z,1009.01
2019-05-01T03:14:54.340Z,1009.03
2019-05-01T03:15:54.328Z,1009.04
2019-05-01T03:16:54.303Z,1009.04
2019-05-01T03:17:54.285Z,1009.06
2019-05-01T03:18:54.268Z,1009.03
2019-05-01T03:19:54.235Z,1009.01
2019-05-01T03:20:54.519Z,1009.05
2019-05-01T03:21:54.194Z,1009.01
2019-05-01T03:22:54.178Z,1009.08
2019-05-01T03:23:54.165Z,1009.05
2019-05-01T03:24:54.131Z,1009.03
2019-05-01T03:25:54.134Z,1009.04
2019-05-01T03:26:54.096Z,1009.01
2019-05-01T03:27:54.384Z,1009.02
2019-05-01T03:28:54.055Z,1009.03
2019-05-01T03:29:54.037Z,1009.01
2019-05-01T03:30:54.022Z,1008.99
2019-05-01T03:32:16.056Z,1009.04
2019-05-01T03:32:53.980Z,1008.95
2019-05-01T03:34:54.236Z,1008.99
2019-05-01T03:35:53.942Z,1009.04
2019-05-01T03:36:53.945Z,1008.98
2019-05-01T03:38:53.853Z,1008.98
2019-05-01T03:39:53.828Z,1009.01
2019-05-01T03:40:53.805Z,1009.00
2019-05-01T03:41:54.086Z,1008.99
2019-05-01T03:43:53.750Z,1009.02
2019-05-01T03:45:53.703Z,1008.99
2019-05-01T03:46:53.681Z,1008.95
2019-05-01T03:47:53.653Z,1009.03
2019-05-01T03:48:53.937Z,1009.00
2019-05-01T03:49:53.627Z,1008.98
2019-05-01T03:51:53.575Z,1008.95
2019-05-01T03:52:53.552Z,1008.96
2019-05-01T03:53:53.533Z,1008.93
2019-05-01T03:56:53.466Z,1008.99
2019-05-01T03:58:53.442Z,1008.99
2019-05-01T04:01:53.362Z,1009.04
2019-05-01T04:02:53.363Z,1009.00
2019-05-01T04:03:53.882Z,1009.04
2019-05-01T04:04:53.306Z,1008.95
2019-05-01T04:06:53.279Z,1008.94
2019-05-01T04:07:53.266Z,1008.96
2019-05-01T04:09:53.204Z,1008.93
2019-05-01T04:10:53.585Z,1008.98
2019-05-01T04:11:53.155Z,1008.91
2019-05-01T04:12:53.144Z,1009.01
2019-05-01T04:13:53.115Z,1008.98
2019-05-01T04:14:53.121Z,1009.01
2019-05-01T04:15:53.075Z,1008.99
2019-05-01T04:16:53.352Z,1009.01
2019-05-01T04:17:53.044Z,1009.04
2019-05-01T04:18:53.014Z,1009.03
2019-05-01T04:19:53.091Z,1009.09
2019-05-01T04:20:52.977Z,1009.05
2019-05-01T04:22:53.226Z,1009.03
2019-05-01T04:23:52.907Z,1009.10
2019-05-01T04:24:52.899Z,1009.13
2019-05-01T04:25:52.861Z,1009.02
2019-05-01T04:26:52.946Z,1009.06
2019-05-01T04:28:52.807Z,1009.07
2019-05-01T04:29:53.026Z,1009.07
2019-05-01T04:31:52.734Z,1009.05
2019-05-01T04:32:53.417Z,1009.02
2019-05-01T04:33:52.695Z,1009.04
2019-05-01T04:34:52.685Z,1009.06
2019-05-01T04:36:52.658Z,1009.06
2019-05-01T04:37:52.922Z,1009.05
2019-05-01T04:38:52.592Z,1009.05
2019-05-01T04:39:52.582Z,1009.01
2019-05-01T04:40:52.641Z,1009.05
2019-05-01T04:41:52.536Z,1009.05
2019-05-01T04:42:52.508Z,1009.04
2019-05-01T04:43:52.501Z,1009.03
2019-05-01T04:44:52.771Z,1009.03
2019-05-01T04:45:52.470Z,1009.02
2019-05-01T04:46:53.536Z,1009.01
2019-05-01T04:47:52.403Z,1009.07
2019-05-01T04:48:52.409Z,1009.04
2019-05-01T04:49:52.371Z,1009.00
2019-05-01T04:50:52.351Z,1008.98
2019-05-01T04:51:52.629Z,1008.98
2019-05-01T04:54:52.257Z,1009.00
2019-05-01T04:55:52.238Z,1009.00
2019-05-01T04:56:52.267Z,1009.03
2019-05-01T04:57:52.192Z,1009.02
2019-05-01T04:58:52.476Z,1009.02
2019-05-01T04:59:52.156Z,1008.98
2019-05-01T05:00:52.238Z,1008.99
2019-05-01T05:01:52.118Z,1008.94
2019-05-01T05:03:04.052Z,1008.96
2019-05-01T05:03:52.075Z,1009.00
2019-05-01T05:04:52.050Z,1008.95
2019-05-01T05:05:52.331Z,1008.96
2019-05-01T05:07:52.010Z,1008.94
2019-05-01T05:08:51.972Z,1008.93
2019-05-01T05:09:51.945Z,1008.90
2019-05-01T05:10:52.026Z,1008.89
2019-05-01T05:11:51.905Z,1008.92
2019-05-01T05:12:52.183Z,1008.93
2019-05-01T05:13:51.865Z,1008.92
2019-05-01T05:14:51.839Z,1009.01
2019-05-01T05:15:51.866Z,1008.98
2019-05-01T05:16:51.809Z,1009.01
2019-05-01T05:17:51.781Z,1008.96
2019-05-01T05:18:51.765Z,1008.98
2019-05-01T05:19:52.041Z,1008.99
2019-05-01T05:20:51.712Z,1009.04
2019-05-01T05:21:51.703Z,1008.99
2019-05-01T05:23:51.704Z,1009.07
2019-05-01T05:25:51.628Z,1009.05
2019-05-01T05:26:51.894Z,1009.03
2019-05-01T05:27:51.582Z,1009.06
2019-05-01T05:28:51.557Z,1009.03
2019-05-01T05:29:51.535Z,1009.09
2019-05-01T05:30:51.514Z,1009.09
2019-05-01T05:31:51.517Z,1009.08
2019-05-01T05:32:51.781Z,1009.12
2019-05-01T05:33:51.456Z,1009.08
2019-05-01T05:34:51.435Z,1009.04
2019-05-01T05:35:51.411Z,1009.06
2019-05-01T05:36:51.389Z,1009.05
2019-05-01T05:37:51.381Z,1009.03
2019-05-01T05:38:51.645Z,1009.06
2019-05-01T05:39:51.334Z,1009.11
2019-05-01T05:40:51.310Z,1009.06
2019-05-01T05:41:51.292Z,1009.07
2019-05-01T05:42:51.279Z,1009.03
2019-05-01T05:44:51.237Z,1009.09
2019-05-01T05:45:51.460Z,1009.02
2019-05-01T05:46:51.184Z,1009.09
2019-05-01T05:47:51.166Z,1009.05
2019-05-01T05:48:51.150Z,1009.09
2019-05-01T05:49:51.135Z,1009.06
2019-05-01T05:50:51.110Z,1009.06
2019-05-01T05:51:51.396Z,1009.03
2019-05-01T05:52:51.062Z,1009.06
2019-05-01T05:53:51.041Z,1009.06
2019-05-01T05:54:51.075Z,1009.05
2019-05-01T05:55:51.009Z,1009.07
2019-05-01T05:56:50.994Z,1009.08
2019-05-01T05:57:51.343Z,1009.08
2019-05-01T05:58:50.948Z,1009.07
2019-05-01T05:59:51.004Z,1009.08
2019-05-01T06:00:50.906Z,1009.05
2019-05-01T06:01:50.926Z,1009.03
2019-05-01T06:02:50.862Z,1009.08
2019-05-01T06:03:51.381Z,1009.08
2019-05-01T06:04:51.417Z,1009.06
2019-05-01T06:06:50.951Z,1009.07
2019-05-01T06:09:50.734Z,1009.08
2019-05-01T06:10:53.529Z,1009.12
2019-05-01T06:11:51.007Z,1009.08
2019-05-01T06:12:50.661Z,1009.10
2019-05-01T06:13:52.502Z,1009.09
2019-05-01T06:15:50.608Z,1009.08
2019-05-01T06:16:52.173Z,1009.12
2019-05-01T06:17:50.577Z,1009.10
2019-05-01T06:19:50.943Z,1009.10
2019-05-01T06:20:50.863Z,1009.08
2019-05-01T06:21:50.485Z,1009.09
2019-05-01T06:23:52.786Z,1009.11
2019-05-01T06:24:50.423Z,1009.15
2019-05-01T06:25:54.158Z,1009.15
2019-05-01T06:26:50.412Z,1009.14
2019-05-01T06:27:50.547Z,1009.15
2019-05-01T06:28:50.358Z,1009.12
2019-05-01T06:29:50.624Z,1009.15
2019-05-01T06:31:53.991Z,1009.13
2019-05-01T06:32:50.667Z,1009.12
2019-05-01T06:33:53.010Z,1009.13
2019-05-01T06:35:50.210Z,1009.10
2019-05-01T06:36:51.393Z,1009.21
2019-05-01T06:37:50.490Z,1009.14
2019-05-01T06:38:50.148Z,1009.17
2019-05-01T06:39:50.424Z,1009.09
2019-05-01T06:40:53.064Z,1009.13
2019-05-01T06:41:50.083Z,1009.11
2019-05-01T06:42:51.153Z,1009.11
2019-05-01T06:43:50.125Z,1009.12
2019-05-01T06:44:50.034Z,1009.10
2019-05-01T06:45:51.605Z,1009.15
2019-05-01T06:46:50.295Z,1009.14
2019-05-01T06:47:52.260Z,1009.13
2019-05-01T06:48:53.403Z,1009.12
2019-05-01T06:50:50.436Z,1009.17
2019-05-01T06:51:53.201Z,1009.18
2019-05-01T06:52:50.221Z,1009.13
2019-05-01T06:53:49.976Z,1009.13
2019-05-01T06:54:52.103Z,1009.26
2019-05-01T06:55:51.515Z,1009.32
2019-05-01T06:56:49.803Z,1009.23
2019-05-01T06:57:49.803Z,1009.24
2019-05-01T06:58:51.101Z,1009.28
2019-05-01T06:59:49.740Z,1009.19
2019-05-01T07:00:49.724Z,1009.12
2019-05-01T07:01:53.259Z,1009.12
2019-05-01T07:02:49.689Z,1009.13
2019-05-01T07:04:02.843Z,1009.12
2019-05-01T07:04:49.650Z,1009.09
2019-05-01T07:05:54.370Z,1009.07
2019-05-01T07:06:49.632Z,1009.13
2019-05-01T07:07:53.288Z,1009.12
2019-05-01T07:08:49.579Z,1009.08
2019-05-01T07:09:51.010Z,1009.13
2019-05-01T07:10:49.836Z,1009.06
2019-05-01T07:11:52.588Z,1009.11
2019-05-01T07:12:49.493Z,1009.13
2019-05-01T07:14:50.881Z,1009.07
2019-05-01T07:15:49.521Z,1009.13
2019-05-01T07:16:49.746Z,1009.10
2019-05-01T07:18:49.462Z,1009.14
2019-05-01T07:19:49.482Z,1009.09
2019-05-01T07:20:51.489Z,1009.13
2019-05-01T07:21:49.336Z,1009.12
2019-05-01T07:22:49.323Z,1009.08
2019-05-01T07:23:52.216Z,1009.11
2019-05-01T07:24:49.541Z,1009.06
2019-05-01T07:25:49.264Z,1009.05
2019-05-01T07:27:49.214Z,1009.07
2019-05-01T07:28:49.503Z,1009.10
2019-05-01T07:29:49.174Z,1009.06
2019-05-01T07:30:49.871Z,1009.15
2019-05-01T07:31:49.135Z,1009.18
2019-05-01T07:32:49.125Z,1009.13
2019-05-01T07:33:51.220Z,1009.17
2019-05-01T07:34:49.099Z,1009.16
2019-05-01T07:35:49.367Z,1009.16
2019-05-01T07:36:50.238Z,1009.12
2019-05-01T07:37:49.105Z,1009.15
2019-05-01T07:39:49.894Z,1009.11
2019-05-01T07:40:49.179Z,1009.16
2019-05-01T07:41:48.963Z,1009.15
2019-05-01T07:43:49.320Z,1009.19
2019-05-01T07:46:53.977Z,1009.14
2019-05-01T07:47:48.853Z,1009.12
2019-05-01T07:49:52.655Z,1009.17
2019-05-01T07:50:49.201Z,1009.17
2019-05-01T07:51:48.806Z,1009.23
2019-05-01T07:52:52.226Z,1009.18
2019-05-01T07:53:48.810Z,1009.30
2019-05-01T07:54:48.753Z,1009.18
2019-05-01T07:55:52.476Z,1009.21
2019-05-01T07:56:48.705Z,1009.21
2019-05-01T07:57:48.967Z,1009.19
2019-05-01T07:58:52.065Z,1009.21
2019-05-01T07:59:48.732Z,1009.22
2019-05-01T08:00:48.622Z,1009.30
2019-05-01T08:01:49.822Z,1009.22
2019-05-01T08:02:48.565Z,1009.23
2019-05-01T08:03:48.539Z,1009.29
2019-05-01T08:04:48.818Z,1009.32
2019-05-01T08:06:52.095Z,1009.22
2019-05-01T08:07:48.464Z,1009.31
2019-05-01T08:08:48.469Z,1009.31
2019-05-01T08:09:50.344Z,1009.39
2019-05-01T08:10:48.484Z,1009.31
2019-05-01T08:11:48.739Z,1009.39
2019-05-01T08:13:48.359Z,1009.35
2019-05-01T08:14:52.369Z,1009.41
2019-05-01T08:15:48.347Z,1009.46
2019-05-01T08:16:48.332Z,1009.37
2019-05-01T08:18:48.585Z,1009.46
2019-05-01T08:19:48.270Z,1009.42
2019-05-01T08:20:50.423Z,1009.43
2019-05-01T08:21:48.518Z,1009.31
2019-05-01T08:22:48.363Z,1009.44
2019-05-01T08:23:48.335Z,1009.38
2019-05-01T08:24:48.458Z,1009.35
2019-05-01T08:25:48.286Z,1009.47
2019-05-01T08:26:48.148Z,1009.48
2019-05-01T08:29:48.063Z,1009.45
2019-05-01T08:30:52.816Z,1009.43
2019-05-01T08:32:48.025Z,1009.43
2019-05-01T08:33:49.876Z,1009.45
2019-05-01T08:34:49.389Z,1009.58
2019-05-01T08:35:48.026Z,1009.57
2019-05-01T08:36:48.473Z,1009.50
2019-05-01T08:37:49.144Z,1009.45
2019-05-01T08:38:47.907Z,1009.51
2019-05-01T08:40:50.778Z,1009.64
2019-05-01T08:41:47.856Z,1010.06
2019-05-01T08:42:48.097Z,1010.11
2019-05-01T08:43:48.904Z,1009.93
2019-05-01T08:44:49.303Z,1009.64
2019-05-01T08:45:47.807Z,1009.55
2019-05-01T08:46:50.932Z,1010.58
2019-05-01T08:47:47.752Z,1009.81
2019-05-01T08:48:48.046Z,1009.77
2019-05-01T08:49:49.883Z,1009.62
2019-05-01T08:50:47.712Z,1009.82
2019-05-01T08:51:47.685Z,1009.46
2019-05-01T08:52:48.674Z,1009.47
2019-05-01T08:53:47.661Z,1009.47
2019-05-01T08:54:47.934Z,1009.45
2019-05-01T08:55:47.677Z,1009.43
2019-05-01T08:56:47.603Z,1009.40
2019-05-01T08:58:49.502Z,1009.31
2019-05-01T08:59:47.557Z,1009.36
2019-05-01T09:00:47.541Z,1009.39
2019-05-01T09:01:50.600Z,1009.49
2019-05-01T09:02:47.530Z,1009.45
2019-05-01T09:03:49.763Z,1009.38
2019-05-01T09:04:47.472Z,1009.48
2019-05-01T09:05:47.675Z,1009.55
2019-05-01T09:06:47.440Z,1009.62
2019-05-01T09:07:51.197Z,1009.62
2019-05-01T09:08:48.270Z,1009.49
2019-05-01T09:10:49.586Z,1009.53
2019-05-01T09:11:47.369Z,1009.64
2019-05-01T09:12:48.384Z,1009.49
2019-05-01T09:13:47.343Z,1009.60
2019-05-01T09:14:47.344Z,1009.53
2019-05-01T09:15:48.343Z,1009.48
2019-05-01T09:16:48.135Z,1009.50
2019-05-01T09:18:47.300Z,1009.51
2019-05-01T09:19:53.193Z,1009.46
2019-05-01T09:22:08.001Z,1009.99
2019-05-01T09:24:47.165Z,1010.76
2019-05-01T09:25:47.149Z,1011.18
2019-05-01T09:26:50.224Z,1011.16
2019-05-01T09:27:47.292Z,1011.07
2019-05-01T09:28:47.281Z,1011.20
2019-05-01T09:29:51.596Z,1009.76
2019-05-01T09:30:47.082Z,1010.91
2019-05-01T09:32:54.259Z,1010.57
2019-05-01T09:33:47.053Z,1010.43
2019-05-01T09:34:47.346Z,1010.24
2019-05-01T09:35:47.005Z,1010.40
2019-05-01T09:36:48.512Z,1009.68
2019-05-01T09:37:46.992Z,1009.62
2019-05-01T09:38:49.886Z,1009.53
2019-05-01T09:39:47.463Z,1011.35
2019-05-01T09:40:46.943Z,1010.72
2019-05-01T09:41:47.647Z,1011.31
2019-05-01T09:42:47.011Z,1009.95
2019-05-01T09:43:47.017Z,1010.61
2019-05-01T09:45:46.993Z,1009.96
2019-05-01T09:46:46.931Z,1011.38
2019-05-01T09:48:46.845Z,1011.45
2019-05-01T09:50:46.826Z,1009.78
2019-05-01T09:51:47.518Z,1010.01
2019-05-01T09:52:46.804Z,1010.07
2019-05-01T09:54:47.930Z,1009.62
2019-05-01T09:55:46.866Z,1011.05
2019-05-01T09:56:46.745Z,1011.91
2019-05-01T09:57:46.787Z,1011.93
2019-05-01T09:58:46.812Z,1010.29
2019-05-01T09:59:46.729Z,1011.95
2019-05-01T10:00:48.771Z,1009.74
2019-05-01T10:02:46.753Z,1009.63
2019-05-01T10:03:49.576Z,1009.55
2019-05-01T10:04:46.676Z,1009.55
2019-05-01T10:06:47.649Z,1009.52
2019-05-01T10:07:46.777Z,1009.56
2019-05-01T10:08:46.634Z,1009.99
2019-05-01T10:09:47.276Z,1009.52
2019-05-01T10:10:46.638Z,1010.99
2019-05-01T10:11:46.590Z,1010.47
2019-05-01T10:13:46.899Z,1011.27
2019-05-01T10:14:46.565Z,1009.42
2019-05-01T10:15:46.537Z,1011.53
2019-05-01T10:17:46.522Z,1010.50
2019-05-01T10:18:46.513Z,1011.02
2019-05-01T10:19:46.836Z,1011.02
2019-05-01T10:20:46.608Z,1009.28
2019-05-01T10:21:46.554Z,1009.20
2019-05-01T10:22:46.508Z,1010.75
2019-05-01T10:23:47.142Z,1010.62
2019-05-01T10:24:47.016Z,1009.27
2019-05-01T10:25:47.896Z,1009.82
2019-05-01T10:26:46.894Z,1009.23
2019-05-01T10:27:46.474Z,1009.11
2019-05-01T10:29:46.402Z,1010.36
2019-05-01T10:30:46.397Z,1009.28
2019-05-01T10:31:46.872Z,1010.24
2019-05-01T10:32:46.660Z,1010.33
2019-05-01T10:33:47.401Z,1010.36
2019-05-01T10:34:46.412Z,1009.74
2019-05-01T10:35:46.328Z,1010.24
2019-05-01T10:36:49.926Z,1009.60
2019-05-01T10:37:46.325Z,1009.93
2019-05-01T10:39:50.259Z,1010.13
2019-05-01T10:40:46.310Z,1009.38
2019-05-01T10:42:46.345Z,1010.13
2019-05-01T10:43:46.309Z,1009.89
2019-05-01T10:44:46.267Z,1010.03
2019-05-01T10:45:46.283Z,1009.38
2019-05-01T10:46:46.528Z,1009.85
2019-05-01T10:47:46.284Z,1009.96
2019-05-01T10:48:46.211Z,1009.91
2019-05-01T10:49:46.199Z,1009.85
2019-05-01T10:51:46.226Z,1009.77
2019-05-01T10:52:46.256Z,1008.92
2019-05-01T10:53:46.563Z,1009.73
2019-05-01T10:54:46.597Z,1009.76
2019-05-01T10:55:46.280Z,1009.15
2019-05-01T10:57:46.210Z,1009.74
2019-05-01T10:58:46.133Z,1009.37
2019-05-01T10:59:46.229Z,1009.75
2019-05-01T11:00:46.401Z,1009.91
2019-05-01T11:01:46.110Z,1009.77
2019-05-01T11:03:46.075Z,1009.62
2019-05-01T11:04:46.077Z,1009.68
2019-05-01T11:05:55.601Z,1009.70
2019-05-01T11:07:46.348Z,1009.70
2019-05-01T11:09:46.044Z,1008.66
2019-05-01T11:10:46.025Z,1009.27
2019-05-01T11:11:46.027Z,1009.26
2019-05-01T11:12:46.010Z,1009.10
2019-05-01T11:13:45.992Z,1009.09
2019-05-01T11:14:46.295Z,1009.14
2019-05-01T11:15:45.970Z,1009.09
2019-05-01T11:16:45.969Z,1009.04
2019-05-01T11:17:45.962Z,1009.07
2019-05-01T11:18:46.085Z,1009.06
2019-05-01T11:19:45.944Z,1009.09
2019-05-01T11:20:46.280Z,1009.09
2019-05-01T11:21:46.109Z,1009.07
2019-05-01T11:22:45.927Z,1009.04
2019-05-01T11:23:45.973Z,1009.02
2019-05-01T11:24:45.909Z,1008.92
2019-05-01T11:25:45.906Z,1008.94
2019-05-01T11:26:46.262Z,1008.99
2019-05-01T11:27:45.875Z,1008.96
2019-05-01T11:28:45.882Z,1008.94
2019-05-01T11:30:45.849Z,1008.95
2019-05-01T11:31:45.873Z,1008.98
2019-05-01T11:33:46.146Z,1008.91
2019-05-01T11:34:45.937Z,1008.90
2019-05-01T11:35:45.813Z,1008.98
2019-05-01T11:36:45.828Z,1008.90
2019-05-01T11:37:45.799Z,1008.81
2019-05-01T11:38:45.815Z,1008.78
2019-05-01T11:39:46.098Z,1008.70
2019-05-01T11:41:45.778Z,1008.75
2019-05-01T11:42:45.866Z,1008.83
2019-05-01T11:43:45.742Z,1008.83
2019-05-01T11:44:45.784Z,1008.79
2019-05-01T11:45:46.028Z,1008.75
2019-05-01T11:46:45.725Z,1008.76
2019-05-01T11:47:45.759Z,1008.73
2019-05-01T11:48:45.752Z,1008.74
2019-05-01T11:49:46.025Z,1008.78
2019-05-01T11:50:46.054Z,1008.71
2019-05-01T11:51:46.237Z,1008.75
2019-05-01T11:52:46.133Z,1008.78
2019-05-01T11:53:45.666Z,1008.79
2019-05-01T11:54:45.661Z,1008.71
2019-05-01T11:55:45.661Z,1008.69
2019-05-01T11:56:45.644Z,1008.76
2019-05-01T11:57:45.950Z,1008.72
2019-05-01T11:58:45.675Z,1008.71
2019-05-01T11:59:45.635Z,1008.67
2019-05-01T12:00:45.631Z,1008.68
2019-05-01T12:01:45.644Z,1008.71
2019-05-01T12:02:45.608Z,1008.71
2019-05-01T12:03:45.634Z,1008.64
2019-05-01T12:04:45.891Z,1008.65
2019-05-01T12:05:45.586Z,1008.72
2019-05-01T12:08:45.559Z,1008.59
2019-05-01T12:10:45.575Z,1008.62
2019-05-01T12:11:45.848Z,1008.65
2019-05-01T12:14:45.522Z,1008.51
2019-05-01T12:15:45.542Z,1008.61
2019-05-01T12:16:45.501Z,1008.55
2019-05-01T12:17:45.552Z,1008.58
2019-05-01T12:18:45.809Z,1008.56
2019-05-01T12:19:45.488Z,1008.53
2019-05-01T12:20:45.480Z,1008.51
2019-05-01T12:21:45.477Z,1008.47
2019-05-01T12:22:48.590Z,1008.50
2019-05-01T12:23:45.472Z,1008.54
2019-05-01T12:26:45.443Z,1008.45
2019-05-01T12:27:45.421Z,1008.42
2019-05-01T12:28:45.582Z,1008.50
2019-05-01T12:29:45.412Z,1008.38
2019-05-01T12:30:45.477Z,1008.39
2019-05-01T12:31:45.391Z,1008.42
2019-05-01T12:32:45.696Z,1008.38
2019-05-01T12:33:45.385Z,1008.37
2019-05-01T12:34:45.445Z,1008.38
2019-05-01T12:35:45.367Z,1008.36
2019-05-01T12:36:45.360Z,1008.30
2019-05-01T12:37:45.410Z,1008.27
2019-05-01T12:38:45.342Z,1008.24
2019-05-01T12:40:45.329Z,1008.17
2019-05-01T12:41:45.327Z,1008.18
2019-05-01T12:42:45.320Z,1008.16
2019-05-01T12:43:45.314Z,1008.16
2019-05-01T12:44:45.292Z,1008.20
2019-05-01T12:45:45.298Z,1008.19
2019-05-01T12:46:45.589Z,1008.17
2019-05-01T12:47:46.001Z,1008.17
2019-05-01T12:48:45.269Z,1008.06
2019-05-01T12:49:45.627Z,1008.01
2019-05-01T12:50:45.270Z,1008.04
2019-05-01T12:51:45.941Z,1008.02
2019-05-01T12:52:45.259Z,1008.10
2019-05-01T12:53:45.525Z,1008.07
2019-05-01T12:54:45.220Z,1008.02
2019-05-01T12:55:45.263Z,1008.02
2019-05-01T12:56:45.202Z,1008.02
2019-05-01T12:57:45.196Z,1007.94
2019-05-01T12:58:45.199Z,1008.10
2019-05-01T12:59:45.494Z,1008.00
2019-05-01T13:00:45.211Z,1007.99
2019-05-01T13:01:45.177Z,1008.16
2019-05-01T13:02:45.180Z,1008.00
2019-05-01T13:03:45.180Z,1007.93
2019-05-01T13:05:45.465Z,1007.91
2019-05-01T13:06:49.425Z,1007.89
2019-05-01T13:07:45.228Z,1007.86
2019-05-01T13:08:45.121Z,1007.99
2019-05-01T13:09:45.170Z,1007.92
2019-05-01T13:10:45.126Z,1007.87
2019-05-01T13:11:45.406Z,1007.79
2019-05-01T13:12:45.109Z,1007.85
2019-05-01T13:13:45.113Z,1007.85
2019-05-01T13:14:45.096Z,1007.81
2019-05-01T13:15:45.061Z,1007.77
2019-05-01T13:16:45.252Z,1007.81
2019-05-01T13:17:45.415Z,1007.77
2019-05-01T13:18:45.331Z,1007.83
2019-05-01T13:19:45.199Z,1007.75
2019-05-01T13:21:45.128Z,1007.66
2019-05-01T13:23:45.314Z,1007.68
2019-05-01T13:24:45.002Z,1007.65
2019-05-01T13:25:45.390Z,1007.66
2019-05-01T13:26:44.999Z,1007.63
2019-05-01T13:28:44.979Z,1007.60
2019-05-01T13:29:45.271Z,1007.56
2019-05-01T13:30:44.942Z,1007.57
2019-05-01T13:31:44.954Z,1007.53
2019-05-01T13:32:44.931Z,1007.51
2019-05-01T13:33:44.920Z,1007.52
2019-05-01T13:34:44.921Z,1007.51
2019-05-01T13:35:45.211Z,1007.52
2019-05-01T13:36:44.916Z,1007.55
2019-05-01T13:37:45.015Z,1007.48
2019-05-01T13:38:44.940Z,1007.42
2019-05-01T13:39:44.893Z,1007.45
2019-05-01T13:40:44.888Z,1007.44
2019-05-01T13:42:45.820Z,1007.31
2019-05-01T13:43:44.868Z,1007.35
2019-05-01T13:44:44.928Z,1007.32
2019-05-01T13:45:45.169Z,1007.36
2019-05-01T13:46:44.828Z,1007.33
2019-05-01T13:47:45.494Z,1007.32
2019-05-01T13:48:44.827Z,1007.29
2019-05-01T13:49:45.216Z,1007.25
2019-05-01T13:50:44.875Z,1007.31
2019-05-01T13:51:44.830Z,1007.33
2019-05-01T13:52:45.082Z,1007.31
2019-05-01T13:53:44.830Z,1007.28
2019-05-01T13:54:44.759Z,1007.27
2019-05-01T13:55:44.753Z,1007.32
2019-05-01T13:56:45.426Z,1007.27